Terminal Aerodrome Forecast
Issued by NWS Cleveland, OH

Home | Current Version | Previous Version | Graphics & Text | Print | Product List | Glossary On
Versions: 1 2 3 4 5 6 7 8 9 10 11 12 13 14
000
FTUS41 KCLE 211124
TAFYNG
TAF
KYNG 211124Z 2112/2212 14008KT P6SM OVC250
     FM211600 18010KT P6SM OVC120
     FM220000 20005KT P6SM OVC070
     FM220400 20005KT 5SM BR OVC025
     FM220800 18003KT 3SM BR OVC008=

USA.gov is the U.S. government's official web portal to all federal, state and local government web resources and services.